Time;durP1;ratioP1;P1;durP2;ratioP2;P2;SDS_P1;SDS_P2;PMS_P1;PMS_P2;Temp;Humidity;BMP_temperature;BMP_pressure;BME280_temperature;BME280_humidity;BME280_pressure;Samples;Min_cycle;Max_cycle;Signal;HPM_P1;HPM_P2
2022/09/20 00:01:39;;;;;;;9.63;2.65;;;;;;;-148.88;95.08;76392.72;5079162;28;20058;-83
2022/09/20 00:04:05;;;;;;;10.02;2.28;;;;;;;-148.88;94.77;76402.88;5096440;28;20394;-83
2022/09/20 00:06:31;;;;;;;8.88;2.65;;;;;;;-148.88;94.79;76384.59;5077731;28;20027;-84
2022/09/20 00:08:58;;;;;;;9.80;2.13;;;;;;;-148.88;94.60;76392.72;5095678;28;20449;-83
2022/09/20 00:11:27;;;;;;;12.70;2.30;;;;;;;-148.88;94.61;76408.97;5095877;28;20020;-85
2022/09/20 00:13:55;;;;;;;9.20;1.98;;;;;;;-148.88;95.22;76413.03;5078024;28;20024;-85
2022/09/20 00:16:26;;;;;;;8.70;2.45;;;;;;;-148.88;95.01;76415.06;5081179;28;20042;-85
2022/09/20 00:18:54;;;;;;;9.57;2.45;;;;;;;-148.88;95.47;76419.16;5082319;28;20074;-86
2022/09/20 00:21:23;;;;;;;12.25;2.55;;;;;;;-148.88;95.21;76415.06;5084896;28;20570;-85
2022/09/20 00:23:51;;;;;;;8.73;1.30;;;;;;;-148.88;95.65;76417.09;5103290;28;20542;-86
2022/09/20 00:26:17;;;;;;;8.65;2.20;;;;;;;-148.88;96.17;76425.25;5083015;28;20020;-86
2022/09/20 00:28:42;;;;;;;9.50;1.85;;;;;;;-148.88;96.38;76427.28;5083713;28;20020;-84
2022/09/20 00:31:09;;;;;;;9.57;2.22;;;;;;;-148.88;96.62;76439.47;5103333;28;20023;-85
2022/09/20 00:36:18;;;;;;;10.32;2.75;;;;;;;-148.88;97.59;76445.56;5101952;28;20507;-85
2022/09/20 00:38:44;;;;;;;8.98;1.83;;;;;;;-148.88;97.61;76443.53;5078611;28;20028;-84
2022/09/20 00:41:09;;;;;;;9.82;1.98;;;;;;;-148.88;98.03;76453.69;5077769;28;20020;-83
2022/09/20 00:43:41;;;;;;;8.40;2.10;;;;;;;-148.88;98.09;76457.75;5077312;28;20027;-84
2022/09/20 00:46:21;;;;;;;13.05;2.90;;;;;;;-148.88;98.14;76453.69;5077864;28;20436;-84
2022/09/20 00:48:47;;;;;;;10.82;2.05;;;;;;;-148.88;97.78;76435.41;5095513;28;20401;-84
2022/09/20 00:51:18;;;;;;;10.27;2.72;;;;;;;-148.88;97.80;76439.47;5096253;28;20094;-86
2022/09/20 00:53:47;;;;;;;13.55;2.10;;;;;;;-148.88;98.66;76447.59;5078730;28;20023;-84
2022/09/20 00:56:17;;;;;;;9.40;2.38;;;;;;;-148.88;99.04;76441.50;5097905;28;20035;-85
2022/09/20 00:58:50;;;;;;;12.43;2.28;;;;;;;-148.88;98.68;76443.53;5079843;28;20509;-86
2022/09/20 01:01:16;;;;;;;9.52;2.38;;;;;;;-148.88;99.26;76453.69;5079792;28;20102;-85
2022/09/20 01:03:42;;;;;;;10.57;2.20;;;;;;;-148.88;99.69;76451.66;5097515;28;20532;-85
2022/09/20 01:06:12;;;;;;;10.65;2.50;;;;;;;-148.88;100.00;76455.72;5079638;28;20107;-84
2022/09/20 01:08:41;;;;;;;6.88;1.25;;;;;;;-148.88;100.00;76457.75;5097379;28;20061;-86
2022/09/20 01:11:07;;;;;;;9.40;2.15;;;;;;;-148.88;100.00;76453.69;5078854;28;20074;-85
2022/09/20 01:13:32;;;;;;;10.32;2.63;;;;;;;-148.88;100.00;76463.84;5097417;28;20036;-84
2022/09/20 01:16:00;;;;;;;11.13;2.47;;;;;;;-148.88;100.00;76467.91;5094360;28;20119;-83
2022/09/20 01:18:26;;;;;;;12.05;2.60;;;;;;;-148.88;100.00;76474.00;5076221;28;20474;-84
2022/09/20 01:20:52;;;;;;;12.05;2.28;;;;;;;-148.88;100.00;76476.03;5094394;28;20043;-84
2022/09/20 01:23:20;;;;;;;12.43;2.60;;;;;;;-148.88;100.00;76476.03;5076355;28;20478;-85
2022/09/20 01:26:15;;;;;;;10.25;2.20;;;;;;;-148.88;100.00;76484.16;5076403;28;20035;-82
2022/09/20 01:28:46;;;;;;;5.30;1.50;;;;;;;-148.88;100.00;76492.28;5076103;28;20020;-85
2022/09/20 01:31:32;;;;;;;13.13;2.22;;;;;;;-148.88;100.00;76494.31;5076228;28;20102;-85
2022/09/20 01:34:00;;;;;;;6.72;1.48;;;;;;;-148.88;100.00;76504.47;5076020;28;20499;-83
2022/09/20 01:36:36;;;;;;;8.20;1.30;;;;;;;-148.88;100.00;76496.34;5076858;28;20114;-84
2022/09/20 01:39:33;;;;;;;11.40;2.20;;;;;;;-148.88;100.00;76506.50;5094224;28;20050;-85
2022/09/20 01:42:04;;;;;;;9.05;1.88;;;;;;;-148.88;100.00;76496.34;5094415;28;20316;-86
2022/09/20 01:44:48;;;;;;;8.02;2.40;;;;;;;-148.88;100.00;76498.38;5076331;28;20118;-85
2022/09/20 01:47:37;;;;;;;9.43;2.13;;;;;;;-148.88;100.00;76506.50;5075919;28;20024;-85
2022/09/20 01:50:09;;;;;;;9.23;1.17;;;;;;;-148.88;100.00;76496.34;5075886;28;20035;-84
2022/09/20 01:53:02;;;;;;;5.75;1.10;;;;;;;-148.88;100.00;76500.41;5075754;28;20114;-84
2022/09/20 01:55:55;;;;;;;6.10;1.23;;;;;;;-148.88;100.00;76520.72;5076204;28;20031;-85
2022/09/20 01:58:44;;;;;;;8.98;2.17;;;;;;;-148.88;100.00;76512.59;5093804;28;20020;-85
2022/09/20 02:01:36;;;;;;;8.45;2.33;;;;;;;-148.88;100.00;76516.66;5076248;28;20037;-84
2022/09/20 02:04:30;;;;;;;5.63;1.42;;;;;;;-148.88;100.00;76512.59;5075785;28;20028;-86
2022/09/20 02:07:10;;;;;;;7.95;2.13;;;;;;;-148.88;100.00;76524.78;5075950;28;20028;-86
2022/09/20 02:10:08;;;;;;;13.40;1.67;;;;;;;-148.88;100.00;76524.78;5076117;28;20386;-84
2022/09/20 02:12:50;;;;;;;8.95;2.50;;;;;;;-148.88;100.00;76541.03;5075724;28;20020;-85
2022/09/20 02:15:46;;;;;;;9.27;2.25;;;;;;;-148.88;100.00;76541.03;5093746;28;20054;-84
2022/09/20 02:18:42;;;;;;;13.05;3.38;;;;;;;-148.88;100.00;76532.91;5076185;28;20521;-85
2022/09/20 02:21:31;;;;;;;3.88;1.30;;;;;;;-148.88;100.00;76530.88;5076028;28;20028;-85
2022/09/20 02:24:05;;;;;;;7.65;1.10;;;;;;;-148.88;100.00;76524.78;5076096;28;20039;-86
2022/09/20 02:27:00;;;;;;;9.55;1.50;;;;;;;-148.88;100.00;76526.81;5075550;28;20429;-85
2022/09/20 02:29:52;;;;;;;9.13;2.33;;;;;;;-148.88;100.00;76532.91;5058486;28;20043;-84
2022/09/20 02:32:42;;;;;;;8.35;2.00;;;;;;;-148.88;100.00;76530.88;5075899;28;20048;-86
2022/09/20 02:35:17;;;;;;;8.68;2.47;;;;;;;-148.88;100.00;76541.03;5075295;28;20031;-84
2022/09/20 02:38:12;;;;;;;6.47;1.85;;;;;;;-148.88;100.00;76541.03;5075974;28;20020;-84
2022/09/20 02:40:59;;;;;;;5.63;1.60;;;;;;;-148.88;100.00;76541.03;5076819;28;20402;-83
2022/09/20 02:43:34;;;;;;;9.25;1.10;;;;;;;-148.88;100.00;76547.13;5097751;28;20027;-84
2022/09/20 02:46:16;;;;;;;7.53;1.00;;;;;;;-148.88;100.00;76543.06;5080396;28;20024;-84
2022/09/20 02:48:48;;;;;;;7.03;1.95;;;;;;;-148.88;100.00;76541.03;5097387;28;20078;-84
2022/09/20 02:51:40;;;;;;;9.27;2.45;;;;;;;-148.88;100.00;76543.06;5097694;28;20024;-85
2022/09/20 02:54:21;;;;;;;9.73;2.85;;;;;;;-148.88;100.00;76539.00;5079624;28;20066;-84
2022/09/20 02:57:17;;;;;;;10.50;2.85;;;;;;;-148.88;100.00;76545.09;5080274;28;20102;-83
2022/09/20 02:59:49;;;;;;;8.63;2.28;;;;;;;-148.88;100.00;76557.28;5080056;28;20032;-84
2022/09/20 03:02:23;;;;;;;5.45;1.10;;;;;;;-148.88;100.00;76553.22;5097632;28;20033;-82
2022/09/20 03:05:00;;;;;;;8.05;2.22;;;;;;;-148.88;100.00;76553.22;5099262;28;20027;-85
2022/09/20 03:07:41;;;;;;;8.57;2.30;;;;;;;-148.88;100.00;76541.03;5102835;28;20039;-85
2022/09/20 03:10:26;;;;;;;13.88;2.65;;;;;;;-148.88;100.00;76553.22;5084941;28;20066;-84
2022/09/20 03:13:08;;;;;;;12.60;2.47;;;;;;;-148.88;100.00;76545.09;5084807;28;20039;-85
2022/09/20 03:15:52;;;;;;;9.20;1.13;;;;;;;-148.88;100.00;76561.34;5084752;28;20026;-85
2022/09/20 03:18:44;;;;;;;9.32;1.83;;;;;;;-148.88;100.00;76567.44;5083387;28;20028;-85
2022/09/20 03:21:28;;;;;;;7.03;1.60;;;;;;;-148.88;100.00;76565.41;5083572;28;20389;-85
2022/09/20 03:24:18;;;;;;;9.77;1.40;;;;;;;-148.88;100.00;76557.28;5084092;28;20079;-81
2022/09/20 03:27:22;;;;;;;7.65;1.70;;;;;;;-148.88;100.00;76561.34;5101422;28;20163;-83
2022/09/20 03:30:36;;;;;;;8.00;2.03;;;;;;;-148.88;100.00;76565.41;5082889;28;20058;-85
2022/09/20 03:33:39;;;;;;;4.60;1.60;;;;;;;-148.88;100.00;76569.47;5086843;28;20265;-84
2022/09/20 03:36:41;;;;;;;8.43;1.85;;;;;;;-148.88;100.00;76567.44;5100521;28;20031;-85
2022/09/20 03:39:36;;;;;;;14.18;2.85;;;;;;;-148.88;100.00;76573.53;5078301;28;20497;-83
2022/09/20 03:42:18;;;;;;;9.07;2.83;;;;;;;-148.88;100.00;76561.34;5078425;28;20070;-83
2022/09/20 03:45:15;;;;;;;5.22;1.20;;;;;;;-148.88;100.00;76567.44;5097140;28;20146;-83
2022/09/20 03:48:17;;;;;;;10.45;3.00;;;;;;;-148.88;100.00;76567.44;5079036;28;20074;-85
2022/09/20 03:50:50;;;;;;;6.20;2.50;;;;;;;-148.88;100.00;76563.38;5078428;28;20031;-86
2022/09/20 03:53:22;;;;;;;7.72;1.65;;;;;;;-148.88;100.00;76561.34;5077438;28;20426;-86
2022/09/20 03:55:59;;;;;;;7.05;2.83;;;;;;;-148.88;100.00;76553.22;5079498;28;20020;-86
2022/09/20 03:58:55;;;;;;;5.25;1.52;;;;;;;-148.88;100.00;76555.25;5078538;28;20019;-86
2022/09/20 04:01:27;;;;;;;9.43;2.13;;;;;;;-148.88;100.00;76553.22;5078895;28;20031;-86
2022/09/20 04:03:56;;;;;;;10.50;2.67;;;;;;;-148.88;100.00;76547.13;5097890;28;20367;-86
2022/09/20 04:07:03;;;;;;;6.70;2.00;;;;;;;-148.88;100.00;76553.22;5081387;28;20024;-84
2022/09/20 04:09:50;;;;;;;11.48;2.65;;;;;;;-148.88;100.00;76557.28;5016181;28;20036;-87
2022/09/20 04:12:39;;;;;;;5.50;1.40;;;;;;;-148.88;100.00;76551.19;5079860;28;20027;-86
2022/09/20 04:15:26;;;;;;;8.82;2.97;;;;;;;-148.88;100.00;76545.09;5095763;28;20024;-86
2022/09/20 04:17:54;;;;;;;10.00;2.70;;;;;;;-148.88;100.00;76545.09;5077801;28;20470;-85
2022/09/20 04:20:37;;;;;;;10.65;2.30;;;;;;;-148.88;100.00;76543.06;5095730;28;20478;-85
2022/09/20 04:23:32;;;;;;;6.78;2.63;;;;;;;-148.88;100.00;76545.09;5096327;28;20103;-86
2022/09/20 04:26:01;;;;;;;6.95;2.33;;;;;;;-148.88;100.00;76532.91;5070120;28;20036;-85
2022/09/20 04:28:35;;;;;;;8.55;2.38;;;;;;;-148.88;100.00;76545.09;5078006;28;20151;-86
2022/09/20 04:31:15;;;;;;;8.00;2.95;;;;;;;-148.88;100.00;76545.09;5078653;28;20081;-86
2022/09/20 04:33:46;;;;;;;11.18;3.00;;;;;;;-148.88;100.00;76543.06;5077958;28;20173;-85
2022/09/20 04:36:36;;;;;;;8.18;2.33;;;;;;;-148.88;100.00;76549.16;5078107;28;20024;-85
2022/09/20 04:39:41;;;;;;;11.70;2.58;;;;;;;-148.88;100.00;76547.13;5077800;28;20020;-85
2022/09/20 04:42:34;;;;;;;12.10;3.63;;;;;;;-148.88;100.00;76559.31;5077673;28;20028;-86
2022/09/20 04:45:18;;;;;;;9.40;1.92;;;;;;;-148.88;100.00;76557.28;5096250;28;20020;-86
2022/09/20 04:47:54;;;;;;;;;;;;;;;-148.88;100.00;76561.34;5077784;28;20440;-87
2022/09/20 04:50:46;;;;;;;7.22;1.60;;;;;;;-148.88;100.00;76553.22;5077634;28;19915;-86
2022/09/20 04:53:13;;;;;;;13.63;3.05;;;;;;;-148.88;100.00;76557.28;5076963;28;20024;-85
2022/09/20 04:55:59;;;;;;;6.57;2.70;;;;;;;-148.88;100.00;76561.34;5077429;28;20055;-85
2022/09/20 04:58:45;;;;;;;14.00;3.60;;;;;;;-148.88;100.00;76565.41;5095596;28;20024;-85
2022/09/20 05:01:15;;;;;;;10.43;3.33;;;;;;;-148.88;100.00;76565.41;5077265;28;20028;-85
2022/09/20 05:04:30;;;;;;;8.07;3.28;;;;;;;-148.88;100.00;76569.47;5078156;28;20523;-85
2022/09/20 05:07:15;;;;;;;;;;;;;;;-148.88;100.00;76583.69;5078461;28;20046;-85
2022/09/20 05:10:13;;;;;;;6.88;1.67;;;;;;;-148.88;100.00;76589.78;5077768;28;19915;-84
2022/09/20 05:12:52;;;;;;;15.10;3.38;;;;;;;-148.88;100.00;76589.78;5077998;28;20028;-84
2022/09/20 05:15:35;;;;;;;5.10;1.77;;;;;;;-148.88;100.00;76589.78;5077357;28;20043;-85
2022/09/20 05:18:26;;;;;;;9.18;3.10;;;;;;;-148.88;100.00;76589.78;5077292;28;20023;-85
2022/09/20 05:20:51;;;;;;;9.40;3.20;;;;;;;-148.88;100.00;76585.72;5076438;28;20054;-85
2022/09/20 05:23:36;;;;;;;8.07;3.17;;;;;;;-148.88;100.00;76589.78;5076712;28;20394;-85
2022/09/20 05:26:28;;;;;;;10.85;2.20;;;;;;;-148.88;100.00;76589.78;5076643;28;20030;-85
2022/09/20 05:29:13;;;;;;;6.63;1.52;;;;;;;-148.88;100.00;76589.78;5076325;28;20035;-85
2022/09/20 05:31:48;;;;;;;8.45;3.10;;;;;;;-148.88;100.00;76573.53;5076449;28;20019;-85
2022/09/20 05:34:22;;;;;;;6.40;1.85;;;;;;;-148.88;100.00;76581.66;5076263;28;20035;-86
2022/09/20 05:37:23;;;;;;;12.95;3.80;;;;;;;-148.88;100.00;76585.72;5076263;28;20567;-86
2022/09/20 05:40:02;;;;;;;14.23;3.33;;;;;;;-148.88;100.00;76585.72;5075765;28;20028;-87
2022/09/20 05:42:52;;;;;;;14.80;3.53;;;;;;;-148.88;100.00;76583.69;5076209;28;20478;-87
2022/09/20 05:45:57;;;;;;;14.30;2.38;;;;;;;-148.88;100.00;76575.56;5075982;28;20075;-87
2022/09/20 05:48:52;;;;;;;7.55;1.52;;;;;;;-148.88;100.00;76573.53;5076427;28;20032;-86
2022/09/20 05:51:34;;;;;;;10.63;2.88;;;;;;;-148.88;100.00;76579.63;5083160;23;20040;-86
2022/09/20 05:54:20;;;;;;;10.52;2.65;;;;;;;-148.88;100.00;76567.44;5056927;28;20515;-86
2022/09/20 05:57:04;;;;;;;10.57;2.90;;;;;;;-148.88;100.00;76563.38;5058603;28;20115;-86
2022/09/20 06:00:00;;;;;;;8.90;2.60;;;;;;;-148.88;100.00;76559.31;5074624;28;20075;-86
2022/09/20 06:03:08;;;;;;;12.65;3.05;;;;;;;-148.88;100.00;76569.47;5036079;28;20121;-85
2022/09/20 06:06:03;;;;;;;12.95;2.58;;;;;;;-148.88;100.00;76563.38;5025235;28;20095;-86
2022/09/20 06:08:49;;;;;;;9.93;2.85;;;;;;;-148.88;100.00;76567.44;5054266;28;20021;-85
2022/09/20 06:11:46;;;;;;;8.10;2.92;;;;;;;-148.88;100.00;76557.28;5036521;28;20032;-86
2022/09/20 06:14:35;;;;;;;10.60;3.05;;;;;;;-148.88;100.00;76549.16;5053826;28;20025;-84
2022/09/20 06:17:22;;;;;;;13.68;2.95;;;;;;;-148.88;100.00;76557.28;5053684;28;20056;-86
2022/09/20 06:19:54;;;;;;;9.93;3.10;;;;;;;-148.88;100.00;76553.22;5053347;28;20021;-86
2022/09/20 06:22:36;;;;;;;7.72;1.50;;;;;;;-148.88;100.00;76553.22;5053191;28;20107;-86
2022/09/20 06:25:07;;;;;;;12.65;3.53;;;;;;;-148.88;100.00;76551.19;5053269;28;20028;-86
2022/09/20 06:27:57;;;;;;;8.63;2.88;;;;;;;-148.88;100.00;76547.13;5035312;28;20021;-85
2022/09/20 06:30:30;;;;;;;12.60;3.40;;;;;;;-148.88;100.00;76553.22;5053417;28;20052;-86
2022/09/20 06:33:09;;;;;;;11.05;3.10;;;;;;;-148.88;100.00;76559.31;5035109;28;20125;-86
2022/09/20 06:35:40;;;;;;;12.98;3.22;;;;;;;-148.88;100.00;76561.34;5035246;28;20029;-86
2022/09/20 06:43:47;;;;;;;6.28;1.85;;;;;;;-148.88;100.00;76549.16;5054281;28;20397;-86
2022/09/20 06:46:14;;;;;;;12.32;2.83;;;;;;;-148.88;100.00;76555.25;5035296;28;20486;-86
2022/09/20 06:48:40;;;;;;;13.18;2.70;;;;;;;-148.88;100.00;76549.16;5052797;28;20044;-86
2022/09/20 06:51:08;;;;;;;8.02;2.92;;;;;;;-148.88;100.00;76551.19;5035234;28;20033;-86
2022/09/20 06:53:36;;;;;;;14.68;4.05;;;;;;;-148.88;100.00;76557.28;5053040;28;20445;-86
2022/09/20 06:56:02;;;;;;;12.82;2.25;;;;;;;-148.88;100.00;76557.28;5035812;28;20021;-87
2022/09/20 06:58:27;;;;;;;13.15;2.80;;;;;;;-148.88;100.00;76553.22;5053056;28;20027;-86
2022/09/20 07:00:52;;;;;;;12.32;2.80;;;;;;;-148.88;100.00;76557.28;5051668;28;20020;-86
2022/09/20 07:03:18;;;;;;;11.57;3.15;;;;;;;-148.88;100.00;76545.09;5053101;28;20021;-87
2022/09/20 07:05:44;;;;;;;14.80;2.88;;;;;;;-148.88;100.00;76557.28;5052887;28;20052;-86
2022/09/20 07:08:11;;;;;;;11.93;3.45;;;;;;;-148.88;100.00;76545.09;5053105;28;20026;-87
2022/09/20 07:10:37;;;;;;;10.02;2.85;;;;;;;-148.88;100.00;76547.13;5052949;28;20036;-86
2022/09/20 07:13:03;;;;;;;11.20;2.90;;;;;;;-148.88;100.00;76555.25;5052968;28;20033;-86
2022/09/20 07:15:31;;;;;;;6.38;1.98;;;;;;;-148.88;100.00;76559.31;5052638;28;20099;-87
2022/09/20 07:17:56;;;;;;;11.35;2.88;;;;;;;-148.88;100.00;76559.31;5051589;28;20475;-87
2022/09/20 07:20:22;;;;;;;11.77;2.90;;;;;;;-148.88;100.00;76569.47;5052806;28;20063;-86
2022/09/20 07:22:48;;;;;;;7.53;3.00;;;;;;;-148.88;100.00;76569.47;5053090;28;20142;-86
2022/09/20 07:25:13;;;;;;;11.05;3.10;;;;;;;-148.88;100.00;76555.25;5051321;28;20025;-86
2022/09/20 07:27:38;;;;;;;13.82;3.53;;;;;;;-148.88;100.00;76555.25;5055706;28;20075;-86
2022/09/20 07:30:05;;;;;;;13.45;3.30;;;;;;;-148.88;100.00;76553.22;5038262;28;20037;-86
2022/09/20 07:32:31;;;;;;;7.68;2.40;;;;;;;-148.88;100.00;76547.13;5054930;28;20052;-86
2022/09/20 07:34:56;;;;;;;11.93;3.55;;;;;;;-148.88;99.83;76536.97;5056329;28;20021;-87
2022/09/20 07:37:21;;;;;;;7.25;3.00;;;;;;;-148.88;99.93;76536.97;5056185;28;20418;-87
2022/09/20 07:39:47;;;;;;;12.43;2.97;;;;;;;-148.88;99.14;76520.72;5056463;28;20032;-87
2022/09/20 07:42:12;;;;;;;8.48;3.22;;;;;;;-148.88;99.11;76522.75;5056311;28;20028;-87
2022/09/20 07:44:42;;;;;;;12.57;3.13;;;;;;;-148.88;98.67;76520.72;5056082;28;20066;-88
2022/09/20 07:47:12;;;;;;;7.75;2.25;;;;;;;-148.88;97.58;76516.66;5056397;28;20031;-87
2022/09/20 07:49:38;;;;;;;5.75;2.13;;;;;;;-148.88;97.56;76504.47;5055663;28;20025;-87
2022/09/20 07:52:03;;;;;;;10.25;2.72;;;;;;;-148.88;97.84;76498.38;5056179;28;20478;-88
2022/09/20 07:54:29;;;;;;;11.50;3.22;;;;;;;-148.88;96.42;76496.34;5048122;28;20056;-88
2022/09/20 07:56:54;;;;;;;7.65;3.00;;;;;;;-148.88;97.08;76486.19;5018647;28;20033;-87
2022/09/20 07:59:19;;;;;;;7.78;2.75;;;;;;;-148.88;95.98;76484.16;5018113;28;20034;-88
2022/09/20 08:01:45;;;;;;;12.45;3.38;;;;;;;-148.88;96.68;76476.03;5051776;28;20106;-87
2022/09/20 08:04:11;;;;;;;6.88;2.95;;;;;;;-148.88;96.34;76476.03;5055842;28;20024;-88
2022/09/20 08:06:38;;;;;;;14.18;3.65;;;;;;;-148.88;96.03;76467.91;5055618;28;20111;-87
2022/09/20 08:09:04;;;;;;;11.15;2.88;;;;;;;-148.88;95.79;76443.53;5038482;28;20021;-87
2022/09/20 08:11:30;;;;;;;9.98;3.00;;;;;;;-148.88;95.81;76455.72;5055371;28;20029;-86
2022/09/20 08:13:58;;;;;;;8.77;2.78;;;;;;;-148.88;94.74;76443.53;5038271;28;20043;-87
2022/09/20 08:16:24;;;;;;;9.57;2.50;;;;;;;-148.88;94.61;76431.34;5055385;28;20024;-87
2022/09/20 08:18:54;;;;;;;9.35;2.88;;;;;;;-148.88;95.74;76427.28;5055131;28;20096;-88
2022/09/20 08:21:20;;;;;;;8.75;2.90;;;;;;;-148.88;94.93;76411.00;5055446;28;20020;-88
2022/09/20 08:23:49;;;;;;;8.98;2.55;;;;;;;-148.88;95.06;76411.00;5055017;28;20385;-87
2022/09/20 08:26:19;;;;;;;10.38;3.00;;;;;;;-148.88;95.92;76419.16;5037314;28;20490;-88
2022/09/20 08:28:45;;;;;;;8.23;2.20;;;;;;;-148.88;95.94;76411.00;5055243;28;20112;-87
2022/09/20 08:31:19;;;;;;;7.60;2.78;;;;;;;-148.88;96.37;76411.00;5054815;28;20031;-88
2022/09/20 08:33:45;;;;;;;;;;;;;;;-148.88;95.72;76392.72;5037753;28;20083;-87
2022/09/20 08:36:13;;;;;;;8.57;3.20;;;;;;;-148.88;94.95;76386.63;5054831;28;19909;-88
2022/09/20 08:38:39;;;;;;;9.27;2.60;;;;;;;-148.88;95.54;76372.41;5036183;28;20027;-87
2022/09/20 08:41:18;;;;;;;9.30;2.70;;;;;;;-148.88;95.11;76366.31;5054622;28;20029;-87
2022/09/20 08:43:53;;;;;;;11.63;2.70;;;;;;;-148.88;95.44;76341.94;5055295;28;20087;-87
2022/09/20 08:46:23;;;;;;;10.68;2.90;;;;;;;-148.88;93.80;76317.56;5055713;28;20021;-88
2022/09/20 08:48:49;;;;;;;7.85;2.30;;;;;;;-148.88;92.20;76289.13;5037144;28;20017;-87
2022/09/20 08:51:15;;;;;;;8.60;2.17;;;;;;;-148.88;89.24;76285.06;5037414;28;20025;-87
2022/09/20 08:53:50;;;;;;;7.00;2.00;;;;;;;-148.88;88.89;76289.13;5036633;28;20079;-87
2022/09/20 08:56:16;;;;;;;12.75;2.85;;;;;;;-148.88;89.33;76289.13;5054793;28;20108;-87
2022/09/20 08:58:42;;;;;;;10.35;2.20;;;;;;;-148.88;89.55;76283.03;5054509;28;20025;-87
2022/09/20 09:01:17;;;;;;;11.35;2.25;;;;;;;-148.88;90.00;76278.97;5054509;28;20027;-88
2022/09/20 09:03:42;;;;;;;9.00;1.83;;;;;;;-148.88;88.42;76270.84;5054411;28;20434;-87
2022/09/20 09:06:19;;;;;;;6.20;1.55;;;;;;;-148.88;88.30;76266.78;5036690;28;20064;-87
2022/09/20 09:08:46;;;;;;;5.90;1.90;;;;;;;-148.88;87.39;76262.72;5054811;28;20537;-87
2022/09/20 09:11:15;;;;;;;6.47;1.50;;;;;;;-148.88;87.56;76248.50;5054001;28;20020;-88
2022/09/20 09:17:02;;;;;;;6.60;1.35;;;;;;;-148.88;85.67;76232.25;5054157;28;20032;-88
2022/09/20 09:19:42;;;;;;;6.93;1.50;;;;;;;-148.88;84.19;76199.75;5036660;28;20063;-88
2022/09/20 09:22:08;;;;;;;6.72;1.45;;;;;;;-148.88;83.25;76171.31;5036675;28;20083;-87
2022/09/20 09:24:33;;;;;;;4.72;1.80;;;;;;;-148.88;83.31;76171.31;5054166;28;20025;-87
2022/09/20 09:27:12;;;;;;;8.02;1.73;;;;;;;-148.88;83.31;76173.34;5036401;28;20469;-87
2022/09/20 09:29:48;;;;;;;8.25;2.03;;;;;;;-148.88;80.75;76177.41;5037171;28;20029;-87
2022/09/20 09:32:23;;;;;;;8.98;1.60;;;;;;;-148.88;81.66;76167.25;5036699;28;20024;-88
2022/09/20 09:34:52;;;;;;;7.40;1.52;;;;;;;-148.88;82.29;76179.44;5036394;28;20021;-88
2022/09/20 09:37:29;;;;;;;5.95;1.75;;;;;;;-148.88;81.68;76169.28;5036389;28;20025;-88
2022/09/20 09:40:15;;;;;;;5.68;1.55;;;;;;;-148.88;79.56;76167.25;5036580;28;20032;-87
2022/09/20 09:42:57;;;;;;;4.43;1.40;;;;;;;-148.88;80.33;76146.94;5053831;28;20024;-86
2022/09/20 09:45:30;;;;;;;3.38;0.88;;;;;;;-148.88;76.32;76144.91;5054719;28;20032;-87
2022/09/20 09:47:58;;;;;;;4.30;1.15;;;;;;;-148.88;75.02;76165.22;5053900;28;20017;-86
2022/09/20 09:50:33;;;;;;;7.68;1.40;;;;;;;-148.88;76.04;76155.06;5034419;28;20052;-88
2022/09/20 09:53:09;;;;;;;3.22;1.05;;;;;;;-148.88;75.50;76142.88;5054191;28;20024;-87
2022/09/20 09:55:59;;;;;;;5.15;1.13;;;;;;;-148.88;75.58;76155.06;5053887;28;20497;-85
2022/09/20 09:58:42;;;;;;;2.10;0.80;;;;;;;-148.88;75.65;76159.13;5053550;28;20478;-86
2022/09/20 10:01:23;;;;;;;5.78;1.15;;;;;;;-148.88;76.47;76155.06;5035913;28;20108;-87
2022/09/20 10:03:59;;;;;;;5.07;1.30;;;;;;;-148.88;77.30;76179.44;5053168;28;20028;-86
2022/09/20 10:06:32;;;;;;;8.98;1.50;;;;;;;-148.88;78.25;76185.53;5036060;28;20467;-87
2022/09/20 10:09:23;;;;;;;5.57;1.30;;;;;;;-148.88;78.28;76211.94;5053566;28;20036;-86
2022/09/20 10:12:29;;;;;;;5.05;1.20;;;;;;;-148.88;79.26;76224.13;5053225;28;20029;-86
2022/09/20 10:15:20;;;;;;;5.57;1.60;;;;;;;-148.88;79.77;76256.63;5013422;28;20041;-86
2022/09/20 10:18:03;;;;;;;6.10;1.33;;;;;;;-148.88;79.29;76264.75;5036031;28;20025;-85
2022/09/20 10:21:06;;;;;;;6.35;1.30;;;;;;;-148.88;77.82;76236.31;5053928;28;20106;-86
2022/09/20 10:23:51;;;;;;;5.63;1.05;;;;;;;-148.88;76.53;76151.00;5036031;28;20540;-86
2022/09/20 10:26:42;;;;;;;5.25;1.20;;;;;;;-148.88;74.07;76088.00;5053726;28;20458;-87
2022/09/20 10:29:35;;;;;;;7.13;1.50;;;;;;;-148.88;72.57;76049.41;5035413;28;20474;-86
2022/09/20 10:32:31;;;;;;;3.33;0.93;;;;;;;-148.88;71.04;76033.16;5035949;28;20029;-86
2022/09/20 10:35:19;;;;;;;5.60;1.13;;;;;;;-148.88;70.58;75978.31;5041699;28;20028;-86
2022/09/20 10:38:18;;;;;;;5.20;1.00;;;;;;;-148.88;66.58;75960.03;5056723;28;20024;-86
2022/09/20 10:44:35;;;;;;;5.07;1.40;;;;;;;-148.88;72.72;75943.78;5053478;28;20035;-86
2022/09/20 10:47:36;;;;;;;4.22;1.15;;;;;;;-148.88;74.07;75929.56;5008997;28;20047;-86
2022/09/20 10:50:19;;;;;;;7.68;1.25;;;;;;;-148.88;72.52;75895.03;5039105;28;20041;-87
2022/09/20 10:53:12;;;;;;;6.35;1.10;;;;;;;-148.88;70.30;75874.72;5052808;28;20060;-87
2022/09/20 10:55:54;;;;;;;6.30;0.90;;;;;;;-148.88;68.93;75874.72;5053122;28;20099;-87
2022/09/20 10:59:01;;;;;;;3.15;0.63;;;;;;;-148.88;63.83;75899.09;5035061;28;20025;-87
2022/09/20 11:02:03;;;;;;;2.22;0.65;;;;;;;-148.88;62.49;75878.78;4956585;28;20418;-87
2022/09/20 11:04:49;;;;;;;4.05;1.05;;;;;;;-148.88;60.56;75888.94;5038762;28;20021;-88
2022/09/20 11:07:36;;;;;;;1.88;0.32;;;;;;;-148.88;60.96;75974.25;5039434;28;20395;-87
2022/09/20 11:10:19;;;;;;;2.35;0.60;;;;;;;-148.88;63.38;75923.47;5056580;28;20418;-87
2022/09/20 11:12:50;;;;;;;3.38;0.57;;;;;;;-148.88;64.08;75923.47;5039337;28;20112;-87
2022/09/20 11:15:23;;;;;;;6.82;0.80;;;;;;;-148.88;61.82;75943.78;5057985;28;20033;-88
2022/09/20 11:18:00;;;;;;;3.55;0.57;;;;;;;-148.88;62.64;75915.34;5041207;28;20024;-87
2022/09/20 11:20:46;;;;;;;3.92;0.65;;;;;;;-148.88;64.74;75947.84;5057220;28;20068;-87
2022/09/20 11:23:18;;;;;;;4.10;0.93;;;;;;;-148.88;62.81;75935.66;5056710;28;20031;-87
2022/09/20 11:26:20;;;;;;;4.43;0.80;;;;;;;-148.88;61.50;75988.47;5039267;28;20025;-87
2022/09/20 11:28:53;;;;;;;3.50;0.77;;;;;;;-148.88;63.01;75970.19;5025625;28;20147;-87
2022/09/20 11:31:30;;;;;;;2.58;0.82;;;;;;;-148.88;65.34;75947.84;5056446;28;20029;-87
2022/09/20 11:34:19;;;;;;;3.55;0.93;;;;;;;-148.88;63.10;75884.88;5038743;28;20068;-87
2022/09/20 11:37:00;;;;;;;2.50;0.90;;;;;;;-148.88;63.26;75929.56;5056810;28;20455;-87
2022/09/20 11:39:40;;;;;;;2.58;1.00;;;;;;;-148.88;63.54;75921.44;5038982;28;20036;-87
2022/09/20 11:42:15;;;;;;;6.28;1.30;;;;;;;-148.88;64.19;75884.88;5038616;28;20029;-87
2022/09/20 11:44:43;;;;;;;3.25;0.70;;;;;;;-148.88;58.01;75860.50;5056168;28;20020;-86
2022/09/20 11:47:22;;;;;;;4.65;0.80;;;;;;;-148.88;58.63;75838.16;5054251;28;20056;-86
2022/09/20 11:52:51;;;;;;;3.55;0.70;;;;;;;-148.88;63.93;75878.78;5112560;22;20057;-87
2022/09/20 11:55:24;;;;;;;4.90;1.17;;;;;;;-148.88;65.10;75919.41;5057615;28;20059;-85
2022/09/20 11:58:09;;;;;;;5.22;1.10;;;;;;;-148.88;65.44;75974.25;5057383;28;20489;-87
2022/09/20 12:00:40;;;;;;;3.70;0.90;;;;;;;-148.88;66.70;75943.78;5057222;28;20036;-87
2022/09/20 12:03:27;;;;;;;1.80;0.60;;;;;;;-148.88;64.46;75901.13;5057275;28;20075;-86
2022/09/20 12:06:01;;;;;;;3.17;0.77;;;;;;;-148.88;61.68;75878.78;5058203;28;20025;-86
2022/09/20 12:08:31;;;;;;;2.75;0.57;;;;;;;-148.88;59.87;75874.72;5057040;28;20021;-86
2022/09/20 12:11:09;;;;;;;2.67;0.60;;;;;;;-148.88;59.25;75834.09;5057032;28;20138;-87
2022/09/20 12:13:38;;;;;;;4.32;0.68;;;;;;;-148.88;56.74;75840.19;5056316;28;20033;-87
2022/09/20 12:16:28;;;;;;;4.18;0.82;;;;;;;-148.88;55.97;75854.41;5057657;28;20024;-87
2022/09/20 12:18:53;;;;;;;3.67;0.73;;;;;;;-148.88;57.56;75878.78;5045969;28;20425;-86
2022/09/20 12:21:20;;;;;;;2.90;0.70;;;;;;;-148.88;57.22;75899.09;5057138;28;20036;-86